sensor_id;sensor_type;location;lat;lon;timestamp;P1;durP1;ratioP1;P2;durP2;ratioP2
52047;SDS011;46904;49.438;8.752;2022-09-03T00:02:43;1.35;;;1.08;;
52047;SDS011;46904;49.438;8.752;2022-09-03T00:05:14;1.02;;;0.80;;
52047;SDS011;46904;49.438;8.752;2022-09-03T00:10:19;1.38;;;1.08;;
52047;SDS011;46904;49.438;8.752;2022-09-03T00:12:47;5.30;;;1.00;;
52047;SDS011;46904;49.438;8.752;2022-09-03T00:17:44;1.20;;;0.80;;
52047;SDS011;46904;49.438;8.752;2022-09-03T00:20:19;1.02;;;0.95;;
52047;SDS011;46904;49.438;8.752;2022-09-03T00:22:50;1.10;;;0.80;;
52047;SDS011;46904;49.438;8.752;2022-09-03T00:25:18;1.10;;;1.00;;
52047;SDS011;46904;49.438;8.752;2022-09-03T00:27:46;1.00;;;0.90;;
52047;SDS011;46904;49.438;8.752;2022-09-03T00:30:14;2.05;;;0.98;;
52047;SDS011;46904;49.438;8.752;2022-09-03T00:32:47;2.35;;;0.90;;
52047;SDS011;46904;49.438;8.752;2022-09-03T00:35:33;2.30;;;1.10;;
52047;SDS011;46904;49.438;8.752;2022-09-03T00:38:05;0.88;;;0.85;;
52047;SDS011;46904;49.438;8.752;2022-09-03T00:40:34;1.10;;;1.00;;
52047;SDS011;46904;49.438;8.752;2022-09-03T00:55:45;1.00;;;0.98;;
52047;SDS011;46904;49.438;8.752;2022-09-03T01:01:21;0.80;;;0.77;;
52047;SDS011;46904;49.438;8.752;2022-09-03T01:14:04;1.00;;;0.90;;
52047;SDS011;46904;49.438;8.752;2022-09-03T01:16:38;2.42;;;1.08;;
52047;SDS011;46904;49.438;8.752;2022-09-03T01:24:30;1.13;;;1.00;;
52047;SDS011;46904;49.438;8.752;2022-09-03T01:29:59;1.08;;;0.88;;
52047;SDS011;46904;49.438;8.752;2022-09-03T01:32:38;0.90;;;0.90;;
52047;SDS011;46904;49.438;8.752;2022-09-03T01:53:18;0.93;;;0.90;;
52047;SDS011;46904;49.438;8.752;2022-09-03T02:00:26;0.85;;;0.80;;
52047;SDS011;46904;49.438;8.752;2022-09-03T02:02:54;1.38;;;0.88;;
52047;SDS011;46904;49.438;8.752;2022-09-03T02:05:20;1.45;;;0.90;;
52047;SDS011;46904;49.438;8.752;2022-09-03T02:07:47;1.08;;;0.85;;
52047;SDS011;46904;49.438;8.752;2022-09-03T02:10:14;2.42;;;0.88;;
52047;SDS011;46904;49.438;8.752;2022-09-03T02:12:40;1.30;;;1.20;;
52047;SDS011;46904;49.438;8.752;2022-09-03T02:15:12;0.80;;;0.80;;
52047;SDS011;46904;49.438;8.752;2022-09-03T02:17:39;2.20;;;1.10;;
52047;SDS011;46904;49.438;8.752;2022-09-03T02:20:07;1.15;;;0.93;;
52047;SDS011;46904;49.438;8.752;2022-09-03T02:22:33;2.00;;;0.85;;
52047;SDS011;46904;49.438;8.752;2022-09-03T02:24:59;1.30;;;0.80;;
52047;SDS011;46904;49.438;8.752;2022-09-03T02:27:25;1.27;;;1.00;;
52047;SDS011;46904;49.438;8.752;2022-09-03T02:29:51;1.02;;;1.02;;
52047;SDS011;46904;49.438;8.752;2022-09-03T02:32:17;1.05;;;0.98;;
52047;SDS011;46904;49.438;8.752;2022-09-03T02:34:42;1.08;;;0.93;;
52047;SDS011;46904;49.438;8.752;2022-09-03T02:37:14;1.20;;;0.93;;
52047;SDS011;46904;49.438;8.752;2022-09-03T02:39:43;1.10;;;1.00;;
52047;SDS011;46904;49.438;8.752;2022-09-03T02:42:09;0.93;;;0.88;;
52047;SDS011;46904;49.438;8.752;2022-09-03T02:44:36;1.63;;;0.98;;
52047;SDS011;46904;49.438;8.752;2022-09-03T02:47:04;1.58;;;1.30;;
52047;SDS011;46904;49.438;8.752;2022-09-03T02:49:30;1.92;;;0.82;;
52047;SDS011;46904;49.438;8.752;2022-09-03T02:51:57;0.98;;;0.80;;
52047;SDS011;46904;49.438;8.752;2022-09-03T02:54:22;1.20;;;1.00;;
52047;SDS011;46904;49.438;8.752;2022-09-03T02:56:48;1.15;;;0.80;;
52047;SDS011;46904;49.438;8.752;2022-09-03T02:59:13;2.42;;;0.90;;
52047;SDS011;46904;49.438;8.752;2022-09-03T03:01:39;1.80;;;0.93;;
52047;SDS011;46904;49.438;8.752;2022-09-03T03:04:05;1.02;;;0.98;;
52047;SDS011;46904;49.438;8.752;2022-09-03T03:06:30;1.10;;;0.90;;
52047;SDS011;46904;49.438;8.752;2022-09-03T03:08:56;1.75;;;1.00;;
52047;SDS011;46904;49.438;8.752;2022-09-03T03:11:21;1.00;;;0.90;;
52047;SDS011;46904;49.438;8.752;2022-09-03T03:13:47;1.25;;;1.15;;
52047;SDS011;46904;49.438;8.752;2022-09-03T03:16:14;1.08;;;1.00;;
52047;SDS011;46904;49.438;8.752;2022-09-03T03:18:39;1.23;;;0.90;;
52047;SDS011;46904;49.438;8.752;2022-09-03T03:21:05;0.82;;;0.80;;
52047;SDS011;46904;49.438;8.752;2022-09-03T03:23:32;0.88;;;0.85;;
52047;SDS011;46904;49.438;8.752;2022-09-03T03:26:01;0.90;;;0.90;;
52047;SDS011;46904;49.438;8.752;2022-09-03T03:28:26;0.80;;;0.80;;
52047;SDS011;46904;49.438;8.752;2022-09-03T03:30:52;1.08;;;0.90;;
52047;SDS011;46904;49.438;8.752;2022-09-03T03:33:17;0.80;;;0.70;;
52047;SDS011;46904;49.438;8.752;2022-09-03T03:35:43;2.50;;;1.00;;
52047;SDS011;46904;49.438;8.752;2022-09-03T03:38:09;1.23;;;1.00;;
52047;SDS011;46904;49.438;8.752;2022-09-03T03:40:36;0.90;;;0.90;;
52047;SDS011;46904;49.438;8.752;2022-09-03T03:43:01;2.08;;;1.15;;
52047;SDS011;46904;49.438;8.752;2022-09-03T03:45:27;1.63;;;1.10;;
52047;SDS011;46904;49.438;8.752;2022-09-03T03:47:56;2.15;;;0.90;;
52047;SDS011;46904;49.438;8.752;2022-09-03T03:50:21;1.05;;;0.95;;
52047;SDS011;46904;49.438;8.752;2022-09-03T03:52:47;4.80;;;0.90;;
52047;SDS011;46904;49.438;8.752;2022-09-03T03:55:12;1.00;;;0.90;;
52047;SDS011;46904;49.438;8.752;2022-09-03T03:57:38;0.90;;;0.77;;
52047;SDS011;46904;49.438;8.752;2022-09-03T04:00:04;4.43;;;1.00;;
52047;SDS011;46904;49.438;8.752;2022-09-03T04:02:29;1.75;;;1.00;;
52047;SDS011;46904;49.438;8.752;2022-09-03T04:04:55;1.08;;;0.93;;
52047;SDS011;46904;49.438;8.752;2022-09-03T04:07:20;1.35;;;1.25;;
52047;SDS011;46904;49.438;8.752;2022-09-03T04:09:46;3.03;;;1.10;;
52047;SDS011;46904;49.438;8.752;2022-09-03T04:12:11;2.22;;;0.80;;
52047;SDS011;46904;49.438;8.752;2022-09-03T04:14:37;1.23;;;1.05;;
52047;SDS011;46904;49.438;8.752;2022-09-03T04:17:03;2.25;;;1.08;;
52047;SDS011;46904;49.438;8.752;2022-09-03T04:19:28;1.27;;;1.00;;
52047;SDS011;46904;49.438;8.752;2022-09-03T04:21:54;0.93;;;0.90;;
52047;SDS011;46904;49.438;8.752;2022-09-03T04:24:20;1.17;;;0.98;;
52047;SDS011;46904;49.438;8.752;2022-09-03T04:26:45;1.15;;;1.05;;
52047;SDS011;46904;49.438;8.752;2022-09-03T04:29:11;1.05;;;0.95;;
52047;SDS011;46904;49.438;8.752;2022-09-03T04:31:37;1.20;;;0.90;;
52047;SDS011;46904;49.438;8.752;2022-09-03T04:34:03;0.82;;;0.80;;
52047;SDS011;46904;49.438;8.752;2022-09-03T04:36:29;0.93;;;0.90;;
52047;SDS011;46904;49.438;8.752;2022-09-03T04:38:56;1.15;;;1.00;;
52047;SDS011;46904;49.438;8.752;2022-09-03T04:41:23;1.50;;;1.10;;
52047;SDS011;46904;49.438;8.752;2022-09-03T04:43:49;1.30;;;1.20;;
52047;SDS011;46904;49.438;8.752;2022-09-03T04:46:15;2.75;;;1.20;;
52047;SDS011;46904;49.438;8.752;2022-09-03T04:48:40;1.05;;;1.00;;
52047;SDS011;46904;49.438;8.752;2022-09-03T04:51:13;1.35;;;1.05;;
52047;SDS011;46904;49.438;8.752;2022-09-03T04:53:39;1.25;;;1.08;;
52047;SDS011;46904;49.438;8.752;2022-09-03T04:56:18;1.10;;;0.90;;
52047;SDS011;46904;49.438;8.752;2022-09-03T04:58:44;2.17;;;0.90;;
52047;SDS011;46904;49.438;8.752;2022-09-03T05:01:11;1.05;;;0.95;;
52047;SDS011;46904;49.438;8.752;2022-09-03T05:03:36;0.95;;;0.90;;
52047;SDS011;46904;49.438;8.752;2022-09-03T05:06:02;2.15;;;1.20;;
52047;SDS011;46904;49.438;8.752;2022-09-03T05:08:27;0.90;;;0.90;;
52047;SDS011;46904;49.438;8.752;2022-09-03T05:10:57;1.40;;;1.30;;
52047;SDS011;46904;49.438;8.752;2022-09-03T05:13:22;1.05;;;0.90;;
52047;SDS011;46904;49.438;8.752;2022-09-03T05:15:48;2.45;;;1.00;;
52047;SDS011;46904;49.438;8.752;2022-09-03T05:18:14;2.35;;;1.10;;
52047;SDS011;46904;49.438;8.752;2022-09-03T05:20:39;1.50;;;1.30;;
52047;SDS011;46904;49.438;8.752;2022-09-03T05:23:05;2.55;;;0.88;;
52047;SDS011;46904;49.438;8.752;2022-09-03T05:25:30;1.20;;;1.10;;
52047;SDS011;46904;49.438;8.752;2022-09-03T05:27:56;1.20;;;1.10;;
52047;SDS011;46904;49.438;8.752;2022-09-03T05:30:22;1.13;;;1.00;;
52047;SDS011;46904;49.438;8.752;2022-09-03T05:32:47;1.00;;;0.90;;
52047;SDS011;46904;49.438;8.752;2022-09-03T05:35:13;1.73;;;1.05;;
52047;SDS011;46904;49.438;8.752;2022-09-03T05:37:38;1.17;;;0.95;;
52047;SDS011;46904;49.438;8.752;2022-09-03T05:40:04;1.38;;;1.00;;
52047;SDS011;46904;49.438;8.752;2022-09-03T05:42:30;1.30;;;1.20;;
52047;SDS011;46904;49.438;8.752;2022-09-03T05:44:55;1.45;;;1.10;;
52047;SDS011;46904;49.438;8.752;2022-09-03T05:47:21;1.60;;;1.08;;
52047;SDS011;46904;49.438;8.752;2022-09-03T05:49:46;2.25;;;1.00;;
52047;SDS011;46904;49.438;8.752;2022-09-03T05:52:12;1.27;;;1.10;;
52047;SDS011;46904;49.438;8.752;2022-09-03T05:54:38;1.35;;;1.20;;
52047;SDS011;46904;49.438;8.752;2022-09-03T05:57:03;1.40;;;1.20;;
52047;SDS011;46904;49.438;8.752;2022-09-03T05:59:29;1.20;;;1.10;;
52047;SDS011;46904;49.438;8.752;2022-09-03T06:01:54;1.30;;;1.20;;
52047;SDS011;46904;49.438;8.752;2022-09-03T06:04:20;1.30;;;1.20;;
52047;SDS011;46904;49.438;8.752;2022-09-03T06:06:46;1.40;;;1.30;;
52047;SDS011;46904;49.438;8.752;2022-09-03T06:09:16;2.83;;;1.40;;
52047;SDS011;46904;49.438;8.752;2022-09-03T06:11:41;2.70;;;1.40;;
52047;SDS011;46904;49.438;8.752;2022-09-03T06:14:07;1.33;;;1.23;;
52047;SDS011;46904;49.438;8.752;2022-09-03T06:16:37;1.83;;;1.30;;
52047;SDS011;46904;49.438;8.752;2022-09-03T06:19:03;1.35;;;1.25;;
52047;SDS011;46904;49.438;8.752;2022-09-03T06:21:29;1.83;;;1.33;;
52047;SDS011;46904;49.438;8.752;2022-09-03T06:23:55;1.35;;;1.20;;
52047;SDS011;46904;49.438;8.752;2022-09-03T06:26:21;1.48;;;1.38;;
52047;SDS011;46904;49.438;8.752;2022-09-03T06:28:47;1.08;;;1.05;;
52047;SDS011;46904;49.438;8.752;2022-09-03T06:31:14;0.98;;;0.98;;
52047;SDS011;46904;49.438;8.752;2022-09-03T06:33:40;1.38;;;1.27;;
52047;SDS011;46904;49.438;8.752;2022-09-03T06:36:06;1.80;;;1.25;;
52047;SDS011;46904;49.438;8.752;2022-09-03T06:38:33;1.40;;;1.30;;
52047;SDS011;46904;49.438;8.752;2022-09-03T06:40:59;1.83;;;1.40;;
52047;SDS011;46904;49.438;8.752;2022-09-03T06:43:25;1.80;;;1.13;;
52047;SDS011;46904;49.438;8.752;2022-09-03T06:48:19;2.67;;;1.70;;
52047;SDS011;46904;49.438;8.752;2022-09-03T06:50:52;1.52;;;1.35;;
52047;SDS011;46904;49.438;8.752;2022-09-03T06:53:17;2.38;;;1.30;;
52047;SDS011;46904;49.438;8.752;2022-09-03T06:55:43;2.78;;;1.67;;
52047;SDS011;46904;49.438;8.752;2022-09-03T06:58:08;1.38;;;1.25;;
52047;SDS011;46904;49.438;8.752;2022-09-03T07:00:34;1.42;;;1.25;;
52047;SDS011;46904;49.438;8.752;2022-09-03T07:02:59;3.65;;;1.80;;
52047;SDS011;46904;49.438;8.752;2022-09-03T07:05:25;1.70;;;1.30;;
52047;SDS011;46904;49.438;8.752;2022-09-03T07:07:50;1.52;;;1.30;;
52047;SDS011;46904;49.438;8.752;2022-09-03T07:10:16;1.73;;;1.42;;
52047;SDS011;46904;49.438;8.752;2022-09-03T07:12:41;1.60;;;1.25;;
52047;SDS011;46904;49.438;8.752;2022-09-03T07:15:07;1.20;;;1.10;;
52047;SDS011;46904;49.438;8.752;2022-09-03T07:17:33;2.45;;;1.80;;
52047;SDS011;46904;49.438;8.752;2022-09-03T07:19:58;1.40;;;1.27;;
52047;SDS011;46904;49.438;8.752;2022-09-03T07:22:24;2.40;;;1.88;;
52047;SDS011;46904;49.438;8.752;2022-09-03T07:24:49;2.35;;;1.48;;
52047;SDS011;46904;49.438;8.752;2022-09-03T07:27:15;1.83;;;1.58;;
52047;SDS011;46904;49.438;8.752;2022-09-03T07:29:41;2.00;;;1.40;;
52047;SDS011;46904;49.438;8.752;2022-09-03T07:32:07;2.92;;;1.40;;
52047;SDS011;46904;49.438;8.752;2022-09-03T07:34:32;1.40;;;1.30;;
52047;SDS011;46904;49.438;8.752;2022-09-03T07:36:58;2.25;;;1.55;;
52047;SDS011;46904;49.438;8.752;2022-09-03T07:39:23;2.92;;;1.40;;
52047;SDS011;46904;49.438;8.752;2022-09-03T07:41:49;1.40;;;1.30;;
52047;SDS011;46904;49.438;8.752;2022-09-03T07:44:15;2.72;;;1.60;;
52047;SDS011;46904;49.438;8.752;2022-09-03T07:46:41;2.25;;;1.30;;
52047;SDS011;46904;49.438;8.752;2022-09-03T07:49:06;3.28;;;1.60;;
52047;SDS011;46904;49.438;8.752;2022-09-03T07:51:33;3.05;;;1.65;;
52047;SDS011;46904;49.438;8.752;2022-09-03T07:54:00;2.10;;;1.80;;
52047;SDS011;46904;49.438;8.752;2022-09-03T07:56:25;1.50;;;1.30;;
52047;SDS011;46904;49.438;8.752;2022-09-03T07:58:51;2.90;;;1.73;;
52047;SDS011;46904;49.438;8.752;2022-09-03T08:01:20;1.85;;;1.60;;
52047;SDS011;46904;49.438;8.752;2022-09-03T08:03:48;2.60;;;1.55;;
52047;SDS011;46904;49.438;8.752;2022-09-03T08:06:14;1.35;;;1.25;;
52047;SDS011;46904;49.438;8.752;2022-09-03T08:08:40;3.45;;;1.42;;
52047;SDS011;46904;49.438;8.752;2022-09-03T08:11:16;1.70;;;1.55;;
52047;SDS011;46904;49.438;8.752;2022-09-03T08:13:53;2.83;;;1.90;;
52047;SDS011;46904;49.438;8.752;2022-09-03T08:16:18;1.65;;;1.42;;
52047;SDS011;46904;49.438;8.752;2022-09-03T08:18:44;2.17;;;1.73;;
52047;SDS011;46904;49.438;8.752;2022-09-03T08:21:11;2.05;;;1.70;;
52047;SDS011;46904;49.438;8.752;2022-09-03T08:23:38;1.77;;;1.67;;
52047;SDS011;46904;49.438;8.752;2022-09-03T08:26:04;2.10;;;1.75;;
52047;SDS011;46904;49.438;8.752;2022-09-03T08:28:29;1.60;;;1.48;;
52047;SDS011;46904;49.438;8.752;2022-09-03T08:30:55;2.47;;;1.70;;
52047;SDS011;46904;49.438;8.752;2022-09-03T08:33:21;1.77;;;1.67;;
52047;SDS011;46904;49.438;8.752;2022-09-03T08:35:53;3.63;;;1.80;;
52047;SDS011;46904;49.438;8.752;2022-09-03T08:38:18;1.95;;;1.60;;
52047;SDS011;46904;49.438;8.752;2022-09-03T08:40:44;5.00;;;1.98;;
52047;SDS011;46904;49.438;8.752;2022-09-03T08:43:14;2.30;;;2.10;;
52047;SDS011;46904;49.438;8.752;2022-09-03T08:45:40;1.88;;;1.70;;
52047;SDS011;46904;49.438;8.752;2022-09-03T08:48:08;2.90;;;1.52;;
52047;SDS011;46904;49.438;8.752;2022-09-03T08:50:41;2.95;;;1.50;;
52047;SDS011;46904;49.438;8.752;2022-09-03T08:53:18;2.05;;;1.83;;
52047;SDS011;46904;49.438;8.752;2022-09-03T08:55:49;2.58;;;1.70;;
52047;SDS011;46904;49.438;8.752;2022-09-03T08:58:16;3.90;;;2.25;;
52047;SDS011;46904;49.438;8.752;2022-09-03T09:05:42;1.88;;;1.77;;
52047;SDS011;46904;49.438;8.752;2022-09-03T09:08:27;1.63;;;1.52;;
52047;SDS011;46904;49.438;8.752;2022-09-03T09:11:03;2.67;;;2.47;;
52047;SDS011;46904;49.438;8.752;2022-09-03T09:13:44;2.85;;;2.20;;
52047;SDS011;46904;49.438;8.752;2022-09-03T09:23:40;2.95;;;2.13;;
52047;SDS011;46904;49.438;8.752;2022-09-03T09:26:18;2.55;;;1.80;;
52047;SDS011;46904;49.438;8.752;2022-09-03T09:28:45;2.28;;;1.77;;
52047;SDS011;46904;49.438;8.752;2022-09-03T09:31:12;1.63;;;1.52;;
52047;SDS011;46904;49.438;8.752;2022-09-03T09:33:38;1.80;;;1.70;;
52047;SDS011;46904;49.438;8.752;2022-09-03T09:36:05;2.03;;;1.75;;
52047;SDS011;46904;49.438;8.752;2022-09-03T09:38:33;2.13;;;1.85;;
52047;SDS011;46904;49.438;8.752;2022-09-03T09:43:37;2.70;;;1.77;;
52047;SDS011;46904;49.438;8.752;2022-09-03T09:46:21;3.08;;;2.78;;
52047;SDS011;46904;49.438;8.752;2022-09-03T09:48:51;2.75;;;2.20;;
52047;SDS011;46904;49.438;8.752;2022-09-03T09:51:38;2.17;;;1.98;;
52047;SDS011;46904;49.438;8.752;2022-09-03T09:54:07;3.05;;;2.03;;
52047;SDS011;46904;49.438;8.752;2022-09-03T09:56:36;2.17;;;1.98;;
52047;SDS011;46904;49.438;8.752;2022-09-03T09:59:11;2.45;;;1.90;;
52047;SDS011;46904;49.438;8.752;2022-09-03T10:01:41;1.85;;;1.67;;
52047;SDS011;46904;49.438;8.752;2022-09-03T10:04:09;2.08;;;1.88;;
52047;SDS011;46904;49.438;8.752;2022-09-03T10:06:34;2.22;;;2.03;;
52047;SDS011;46904;49.438;8.752;2022-09-03T10:11:32;2.03;;;1.90;;
52047;SDS011;46904;49.438;8.752;2022-09-03T10:13:58;1.70;;;1.60;;
52047;SDS011;46904;49.438;8.752;2022-09-03T10:16:26;2.53;;;1.90;;
52047;SDS011;46904;49.438;8.752;2022-09-03T10:18:57;3.55;;;2.28;;
52047;SDS011;46904;49.438;8.752;2022-09-03T10:21:31;2.65;;;1.85;;
52047;SDS011;46904;49.438;8.752;2022-09-03T10:26:43;2.47;;;2.10;;
52047;SDS011;46904;49.438;8.752;2022-09-03T10:29:09;1.95;;;1.75;;
52047;SDS011;46904;49.438;8.752;2022-09-03T10:34:26;4.28;;;2.42;;
52047;SDS011;46904;49.438;8.752;2022-09-03T10:36:58;2.10;;;1.90;;
52047;SDS011;46904;49.438;8.752;2022-09-03T10:45:18;2.53;;;2.00;;
52047;SDS011;46904;49.438;8.752;2022-09-03T10:47:57;1.98;;;1.88;;
52047;SDS011;46904;49.438;8.752;2022-09-03T10:50:27;2.65;;;2.15;;
52047;SDS011;46904;49.438;8.752;2022-09-03T10:53:02;2.63;;;2.07;;
52047;SDS011;46904;49.438;8.752;2022-09-03T11:00:24;2.42;;;2.28;;
52047;SDS011;46904;49.438;8.752;2022-09-03T11:05:55;1.98;;;1.88;;
52047;SDS011;46904;49.438;8.752;2022-09-03T11:08:25;2.95;;;2.03;;
52047;SDS011;46904;49.438;8.752;2022-09-03T11:11:11;2.45;;;2.25;;
52047;SDS011;46904;49.438;8.752;2022-09-03T11:13:55;4.10;;;2.70;;
52047;SDS011;46904;49.438;8.752;2022-09-03T11:16:25;4.00;;;2.70;;
52047;SDS011;46904;49.438;8.752;2022-09-03T11:18:52;2.20;;;2.03;;
52047;SDS011;46904;49.438;8.752;2022-09-03T11:21:23;2.07;;;1.83;;
52047;SDS011;46904;49.438;8.752;2022-09-03T11:26:26;2.90;;;2.25;;
52047;SDS011;46904;49.438;8.752;2022-09-03T11:33:48;2.45;;;2.15;;
52047;SDS011;46904;49.438;8.752;2022-09-03T11:36:29;3.97;;;2.13;;
52047;SDS011;46904;49.438;8.752;2022-09-03T11:38:55;2.42;;;2.22;;
52047;SDS011;46904;49.438;8.752;2022-09-03T11:41:24;5.10;;;2.00;;
52047;SDS011;46904;49.438;8.752;2022-09-03T11:43:50;2.83;;;2.25;;
52047;SDS011;46904;49.438;8.752;2022-09-03T11:48:54;2.50;;;1.90;;
52047;SDS011;46904;49.438;8.752;2022-09-03T11:53:52;2.25;;;1.70;;
52047;SDS011;46904;49.438;8.752;2022-09-03T11:56:18;2.00;;;1.90;;
52047;SDS011;46904;49.438;8.752;2022-09-03T11:58:43;1.98;;;1.88;;
52047;SDS011;46904;49.438;8.752;2022-09-03T12:01:13;1.90;;;1.73;;
52047;SDS011;46904;49.438;8.752;2022-09-03T12:11:24;1.80;;;1.70;;
52047;SDS011;46904;49.438;8.752;2022-09-03T12:22:01;1.83;;;1.73;;
52047;SDS011;46904;49.438;8.752;2022-09-03T12:24:27;2.20;;;2.00;;
52047;SDS011;46904;49.438;8.752;2022-09-03T12:26:53;1.70;;;1.60;;
52047;SDS011;46904;49.438;8.752;2022-09-03T12:29:19;1.73;;;1.60;;
52047;SDS011;46904;49.438;8.752;2022-09-03T12:31:47;1.55;;;1.45;;
52047;SDS011;46904;49.438;8.752;2022-09-03T12:34:14;1.50;;;1.40;;
52047;SDS011;46904;49.438;8.752;2022-09-03T12:36:41;1.02;;;0.90;;
52047;SDS011;46904;49.438;8.752;2022-09-03T12:39:08;1.23;;;1.13;;
52047;SDS011;46904;49.438;8.752;2022-09-03T12:41:34;1.33;;;1.23;;
52047;SDS011;46904;49.438;8.752;2022-09-03T12:44:00;1.63;;;1.20;;
52047;SDS011;46904;49.438;8.752;2022-09-03T12:46:29;1.70;;;1.60;;
52047;SDS011;46904;49.438;8.752;2022-09-03T12:49:04;1.60;;;1.50;;
52047;SDS011;46904;49.438;8.752;2022-09-03T12:51:32;1.50;;;1.40;;
52047;SDS011;46904;49.438;8.752;2022-09-03T12:53:58;2.00;;;1.63;;
52047;SDS011;46904;49.438;8.752;2022-09-03T12:56:24;1.60;;;1.40;;
52047;SDS011;46904;49.438;8.752;2022-09-03T12:58:52;1.60;;;1.50;;
52047;SDS011;46904;49.438;8.752;2022-09-03T13:01:27;1.63;;;1.52;;
52047;SDS011;46904;49.438;8.752;2022-09-03T13:04:01;2.28;;;1.63;;
52047;SDS011;46904;49.438;8.752;2022-09-03T13:06:28;1.70;;;1.60;;
52047;SDS011;46904;49.438;8.752;2022-09-03T13:08:56;1.65;;;1.55;;
52047;SDS011;46904;49.438;8.752;2022-09-03T13:11:23;1.67;;;1.58;;
52047;SDS011;46904;49.438;8.752;2022-09-03T13:14:08;1.67;;;1.58;;
52047;SDS011;46904;49.438;8.752;2022-09-03T13:24:16;1.63;;;1.52;;
52047;SDS011;46904;49.438;8.752;2022-09-03T13:29:18;1.73;;;1.63;;
52047;SDS011;46904;49.438;8.752;2022-09-03T13:32:24;2.05;;;1.88;;
52047;SDS011;46904;49.438;8.752;2022-09-03T13:34:40;1.77;;;1.67;;
52047;SDS011;46904;49.438;8.752;2022-09-03T13:39:37;2.08;;;1.60;;
52047;SDS011;46904;49.438;8.752;2022-09-03T13:42:08;1.63;;;1.52;;
52047;SDS011;46904;49.438;8.752;2022-09-03T13:44:43;2.20;;;2.00;;
52047;SDS011;46904;49.438;8.752;2022-09-03T13:47:31;2.00;;;1.80;;
52047;SDS011;46904;49.438;8.752;2022-09-03T13:50:18;2.13;;;1.92;;
52047;SDS011;46904;49.438;8.752;2022-09-03T13:53:06;2.28;;;2.00;;
52047;SDS011;46904;49.438;8.752;2022-09-03T13:58:05;2.40;;;2.20;;
52047;SDS011;46904;49.438;8.752;2022-09-03T14:13:43;2.30;;;2.10;;
52047;SDS011;46904;49.438;8.752;2022-09-03T14:21:57;2.42;;;2.22;;
52047;SDS011;46904;49.438;8.752;2022-09-03T14:26:50;2.08;;;1.98;;
52047;SDS011;46904;49.438;8.752;2022-09-03T14:29:17;2.13;;;1.92;;
52047;SDS011;46904;49.438;8.752;2022-09-03T14:39:08;2.83;;;2.63;;
52047;SDS011;46904;49.438;8.752;2022-09-03T14:46:46;2.20;;;2.10;;
52047;SDS011;46904;49.438;8.752;2022-09-03T14:49:22;1.73;;;1.63;;
52047;SDS011;46904;49.438;8.752;2022-09-03T14:54:46;3.05;;;2.58;;
52047;SDS011;46904;49.438;8.752;2022-09-03T15:05:08;2.33;;;2.00;;
52047;SDS011;46904;49.438;8.752;2022-09-03T15:07:35;2.00;;;1.90;;
52047;SDS011;46904;49.438;8.752;2022-09-03T15:14:57;2.38;;;2.17;;
52047;SDS011;46904;49.438;8.752;2022-09-03T15:20:15;2.22;;;2.08;;
52047;SDS011;46904;49.438;8.752;2022-09-03T15:22:48;2.65;;;2.45;;
52047;SDS011;46904;49.438;8.752;2022-09-03T15:25:23;2.50;;;2.30;;
52047;SDS011;46904;49.438;8.752;2022-09-03T15:30:31;2.65;;;2.40;;
52047;SDS011;46904;49.438;8.752;2022-09-03T15:33:04;3.78;;;1.92;;
52047;SDS011;46904;49.438;8.752;2022-09-03T15:38:04;2.10;;;1.90;;
52047;SDS011;46904;49.438;8.752;2022-09-03T15:40:47;2.83;;;2.53;;
52047;SDS011;46904;49.438;8.752;2022-09-03T15:43:16;2.58;;;2.38;;
52047;SDS011;46904;49.438;8.752;2022-09-03T15:53:27;3.85;;;2.97;;
52047;SDS011;46904;49.438;8.752;2022-09-03T15:58:35;3.55;;;3.25;;
52047;SDS011;46904;49.438;8.752;2022-09-03T16:01:09;4.72;;;3.38;;
52047;SDS011;46904;49.438;8.752;2022-09-03T16:06:22;2.55;;;2.35;;
52047;SDS011;46904;49.438;8.752;2022-09-03T16:08:56;3.33;;;3.03;;
52047;SDS011;46904;49.438;8.752;2022-09-03T16:16:25;2.90;;;2.70;;
52047;SDS011;46904;49.438;8.752;2022-09-03T16:18:58;2.67;;;2.45;;
52047;SDS011;46904;49.438;8.752;2022-09-03T16:21:27;3.53;;;2.72;;
52047;SDS011;46904;49.438;8.752;2022-09-03T16:28:52;3.38;;;3.08;;
52047;SDS011;46904;49.438;8.752;2022-09-03T16:31:31;2.85;;;2.65;;
52047;SDS011;46904;49.438;8.752;2022-09-03T16:34:13;3.38;;;2.80;;
52047;SDS011;46904;49.438;8.752;2022-09-03T16:36:44;2.60;;;2.40;;
52047;SDS011;46904;49.438;8.752;2022-09-03T16:41:49;3.22;;;2.90;;
52047;SDS011;46904;49.438;8.752;2022-09-03T16:47:20;3.47;;;2.97;;
52047;SDS011;46904;49.438;8.752;2022-09-03T16:49:51;4.10;;;3.38;;
52047;SDS011;46904;49.438;8.752;2022-09-03T16:52:24;3.28;;;2.92;;
52047;SDS011;46904;49.438;8.752;2022-09-03T16:55:42;5.05;;;3.58;;
52047;SDS011;46904;49.438;8.752;2022-09-03T17:00:07;3.30;;;3.00;;
52047;SDS011;46904;49.438;8.752;2022-09-03T17:03:20;3.50;;;3.20;;
52047;SDS011;46904;49.438;8.752;2022-09-03T17:10:29;3.38;;;3.08;;
52047;SDS011;46904;49.438;8.752;2022-09-03T17:15:27;4.05;;;2.97;;
52047;SDS011;46904;49.438;8.752;2022-09-03T17:25:39;3.67;;;2.92;;
52047;SDS011;46904;49.438;8.752;2022-09-03T17:41:04;4.22;;;2.88;;
52047;SDS011;46904;49.438;8.752;2022-09-03T17:46:30;3.30;;;2.72;;
52047;SDS011;46904;49.438;8.752;2022-09-03T17:49:00;4.53;;;2.92;;
52047;SDS011;46904;49.438;8.752;2022-09-03T17:53:58;3.72;;;2.72;;
52047;SDS011;46904;49.438;8.752;2022-09-03T17:56:28;2.65;;;2.45;;
52047;SDS011;46904;49.438;8.752;2022-09-03T17:59:03;3.10;;;2.88;;
52047;SDS011;46904;49.438;8.752;2022-09-03T18:01:32;2.88;;;2.67;;
52047;SDS011;46904;49.438;8.752;2022-09-03T18:06:51;5.47;;;3.92;;
52047;SDS011;46904;49.438;8.752;2022-09-03T18:09:25;5.22;;;3.55;;
52047;SDS011;46904;49.438;8.752;2022-09-03T18:12:03;2.85;;;2.65;;
52047;SDS011;46904;49.438;8.752;2022-09-03T18:14:51;3.70;;;2.97;;
52047;SDS011;46904;49.438;8.752;2022-09-03T18:19:47;3.58;;;2.83;;
52047;SDS011;46904;49.438;8.752;2022-09-03T18:22:14;4.85;;;3.60;;
52047;SDS011;46904;49.438;8.752;2022-09-03T18:24:40;4.13;;;2.97;;
52047;SDS011;46904;49.438;8.752;2022-09-03T18:27:53;4.07;;;2.58;;
52047;SDS011;46904;49.438;8.752;2022-09-03T18:30:06;2.20;;;2.00;;
52047;SDS011;46904;49.438;8.752;2022-09-03T18:32:32;2.83;;;2.30;;
52047;SDS011;46904;49.438;8.752;2022-09-03T18:34:58;2.30;;;2.10;;
52047;SDS011;46904;49.438;8.752;2022-09-03T18:37:25;2.92;;;2.70;;
52047;SDS011;46904;49.438;8.752;2022-09-03T18:39:51;2.78;;;2.30;;
52047;SDS011;46904;49.438;8.752;2022-09-03T18:45:00;2.75;;;2.15;;
52047;SDS011;46904;49.438;8.752;2022-09-03T18:50:55;2.30;;;2.05;;
52047;SDS011;46904;49.438;8.752;2022-09-03T18:53:06;3.13;;;2.20;;
52047;SDS011;46904;49.438;8.752;2022-09-03T19:00:34;2.22;;;2.03;;
52047;SDS011;46904;49.438;8.752;2022-09-03T19:03:03;2.20;;;2.00;;
52047;SDS011;46904;49.438;8.752;2022-09-03T19:08:21;3.08;;;2.10;;
52047;SDS011;46904;49.438;8.752;2022-09-03T19:10:50;2.60;;;2.00;;
52047;SDS011;46904;49.438;8.752;2022-09-03T19:15:52;1.75;;;1.65;;
52047;SDS011;46904;49.438;8.752;2022-09-03T19:18:31;2.20;;;1.73;;
52047;SDS011;46904;49.438;8.752;2022-09-03T19:23:38;2.85;;;2.25;;
52047;SDS011;46904;49.438;8.752;2022-09-03T19:26:21;1.77;;;1.58;;
52047;SDS011;46904;49.438;8.752;2022-09-03T19:28:48;1.92;;;1.83;;
52047;SDS011;46904;49.438;8.752;2022-09-03T19:36:15;2.37;;;2.17;;
52047;SDS011;46904;49.438;8.752;2022-09-03T19:41:24;1.70;;;1.52;;
52047;SDS011;46904;49.438;8.752;2022-09-03T19:51:52;1.42;;;1.33;;
52047;SDS011;46904;49.438;8.752;2022-09-03T19:54:22;1.42;;;1.33;;
52047;SDS011;46904;49.438;8.752;2022-09-03T19:56:49;1.90;;;1.80;;
52047;SDS011;46904;49.438;8.752;2022-09-03T19:59:19;1.65;;;1.55;;
52047;SDS011;46904;49.438;8.752;2022-09-03T20:01:45;1.80;;;1.70;;
52047;SDS011;46904;49.438;8.752;2022-09-03T20:04:14;1.60;;;1.50;;
52047;SDS011;46904;49.438;8.752;2022-09-03T20:06:40;2.38;;;1.65;;